createdAt,value
2023-10-16T00:00:30.911Z,99909.22
2023-10-16T00:03:23.940Z,99906.72
2023-10-16T00:05:57.484Z,99910.11
2023-10-16T00:08:29.489Z,99924.24
2023-10-16T00:11:02.877Z,99934.04
2023-10-16T00:13:38.652Z,99945.97
2023-10-16T00:16:16.420Z,99949.84
2023-10-16T00:18:49.021Z,99942.53
2023-10-16T00:21:21.357Z,99935.69
2023-10-16T00:23:53.721Z,99935.11
2023-10-16T00:26:25.948Z,99941.77
2023-10-16T00:29:09.184Z,99944.35
2023-10-16T00:31:44.793Z,99952.50
2023-10-16T00:34:21.471Z,99963.47
2023-10-16T00:36:55.434Z,99975.12
2023-10-16T00:39:30.659Z,99971.51
2023-10-16T00:42:04.073Z,99958.28
2023-10-16T00:44:36.959Z,99960.02
2023-10-16T00:47:11.263Z,99955.39
2023-10-16T00:49:44.651Z,99960.73
2023-10-16T00:52:17.650Z,99977.02
2023-10-16T00:54:50.850Z,99972.96
2023-10-16T00:57:28.770Z,99971.34
2023-10-16T01:00:01.309Z,99965.63
2023-10-16T01:02:36.025Z,99969.59
2023-10-16T01:05:10.123Z,99967.72
2023-10-16T01:07:42.103Z,99974.12
2023-10-16T01:10:14.474Z,99982.97
2023-10-16T01:12:56.314Z,99969.78
2023-10-16T01:15:28.875Z,99969.78
2023-10-16T01:18:00.635Z,99979.11
2023-10-16T01:20:32.967Z,99989.45
2023-10-16T01:23:08.704Z,99990.73
2023-10-16T01:25:41.602Z,99995.73
2023-10-16T01:28:16.793Z,100004.21
2023-10-16T01:30:50.728Z,100013.28
2023-10-16T01:33:24.683Z,100011.90
2023-10-16T01:35:56.620Z,100006.19
2023-10-16T01:38:29.198Z,100010.73
2023-10-16T01:41:08.729Z,100013.63
2023-10-16T01:43:40.544Z,100022.94
2023-10-16T01:46:14.533Z,100014.92
2023-10-16T01:48:48.492Z,100025.62
2023-10-16T01:51:21.314Z,100041.66
2023-10-16T01:53:53.458Z,100056.07
2023-10-16T01:56:25.845Z,100053.86
2023-10-16T01:58:58.603Z,100050.02
2023-10-16T02:01:30.980Z,100053.15
2023-10-16T02:04:05.057Z,100048.02
2023-10-16T02:06:37.159Z,100046.39
2023-10-16T02:09:15.014Z,100043.72
2023-10-16T02:11:47.421Z,100049.89
2023-10-16T02:14:18.969Z,100054.41
2023-10-16T02:16:53.223Z,100070.44
2023-10-16T02:19:26.517Z,100066.60
2023-10-16T02:21:57.928Z,100063.34
2023-10-16T02:24:30.591Z,100067.89
2023-10-16T02:27:03.901Z,100080.87
2023-10-16T02:29:36.265Z,100077.62
2023-10-16T02:32:11.595Z,100088.77
2023-10-16T02:34:43.492Z,100088.17
2023-10-16T02:37:17.881Z,100092.72
2023-10-16T02:39:55.785Z,100093.98
2023-10-16T02:42:29.528Z,100089.47
2023-10-16T02:45:01.149Z,100100.16
2023-10-16T02:47:33.732Z,100093.98
2023-10-16T02:50:09.629Z,100097.10
2023-10-16T02:52:41.337Z,100089.78
2023-10-16T02:55:15.425Z,100096.97
2023-10-16T02:57:47.312Z,100093.70
2023-10-16T03:00:26.905Z,100110.19
2023-10-16T03:02:59.529Z,100116.81
2023-10-16T03:05:31.586Z,100127.71
2023-10-16T03:08:03.968Z,100133.05
2023-10-16T03:10:38.063Z,100130.62
2023-10-16T03:13:10.129Z,100138.84
2023-10-16T03:15:47.172Z,100146.86
2023-10-16T03:18:21.465Z,100148.14
2023-10-16T03:21:03.515Z,100149.39
2023-10-16T03:23:36.001Z,100153.94
2023-10-16T03:26:10.416Z,100164.03
2023-10-16T03:28:41.968Z,100161.20
2023-10-16T03:31:14.423Z,100168.24
2023-10-16T03:33:46.622Z,100186.05
2023-10-16T03:36:19.324Z,100207.33
2023-10-16T03:38:52.472Z,100209.66
2023-10-16T03:41:29.684Z,100220.05
2023-10-16T03:44:09.172Z,100243.57
2023-10-16T03:46:43.356Z,100256.17
2023-10-16T03:49:16.802Z,100259.77
2023-10-16T03:51:49.935Z,100262.33
2023-10-16T03:54:32.542Z,100259.77
2023-10-16T03:57:11.574Z,100273.14
2023-10-16T03:59:44.325Z,100291.80
2023-10-16T04:02:21.520Z,100306.14
2023-10-16T04:04:55.338Z,100319.89
2023-10-16T04:07:27.057Z,100333.20
2023-10-16T04:10:15.606Z,100350.41
2023-10-16T04:12:52.888Z,100369.47
2023-10-16T04:15:47.492Z,100381.95
2023-10-16T04:18:32.677Z,100389.31
2023-10-16T04:21:22.645Z,100409.38
2023-10-16T04:23:58.935Z,100425.34
2023-10-16T04:26:49.341Z,100432.09
2023-10-16T04:29:35.188Z,100438.00
2023-10-16T04:32:28.904Z,100423.27
2023-10-16T04:35:04.779Z,100423.27
2023-10-16T04:37:38.761Z,100427.36
2023-10-16T04:40:44.676Z,100416.49
2023-10-16T04:43:20.965Z,100411.14
2023-10-16T04:46:16.966Z,100420.54
2023-10-16T04:48:52.611Z,100428.73
2023-10-16T04:54:29.720Z,100441.19
2023-10-16T04:57:31.073Z,100463.05
2023-10-16T05:00:29.873Z,100467.12
2023-10-16T05:03:24.038Z,100469.36
2023-10-16T05:06:05.462Z,100460.77
2023-10-16T05:09:00.909Z,100457.27
2023-10-16T05:11:37.726Z,100474.63
2023-10-16T05:14:23.951Z,100483.22
2023-10-16T05:17:23.081Z,100495.05
2023-10-16T05:20:14.623Z,100509.74
2023-10-16T05:23:03.776Z,100518.11
2023-10-16T05:25:54.986Z,100533.64
2023-10-16T05:28:44.566Z,100537.31
2023-10-16T05:31:45.662Z,100540.78
2023-10-16T05:34:34.411Z,100550.99
2023-10-16T05:37:24.343Z,100559.14
2023-10-16T05:40:14.740Z,100585.90
2023-10-16T05:43:04.516Z,100580.97
2023-10-16T05:45:54.139Z,100590.55
2023-10-16T05:48:43.476Z,100599.53
2023-10-16T05:51:32.863Z,100610.55
2023-10-16T05:54:23.084Z,100610.72
2023-10-16T05:57:12.188Z,100621.55
2023-10-16T06:00:01.975Z,100627.67
2023-10-16T06:03:01.392Z,100633.63
2023-10-16T06:05:51.762Z,100636.66
2023-10-16T06:08:41.132Z,100652.43
2023-10-16T06:11:31.044Z,100664.45
2023-10-16T06:14:15.266Z,100681.37
2023-10-16T06:16:48.710Z,100692.38
2023-10-16T06:19:21.164Z,100690.73
2023-10-16T06:21:54.256Z,100691.91
2023-10-16T06:24:34.503Z,100700.72
2023-10-16T06:27:10.441Z,100704.82
2023-10-16T06:29:51.208Z,100722.61
2023-10-16T06:32:24.138Z,100729.31
2023-10-16T06:34:59.818Z,100732.14
2023-10-16T06:37:33.444Z,100736.45
2023-10-16T06:40:17.649Z,100742.59
2023-10-16T06:42:49.569Z,100753.22
2023-10-16T06:45:24.054Z,100770.17
2023-10-16T06:48:00.308Z,100781.44
2023-10-16T06:50:36.565Z,100793.52
2023-10-16T06:53:08.237Z,100784.16
2023-10-16T06:55:40.607Z,100795.80
2023-10-16T06:58:13.832Z,100808.08
2023-10-16T07:00:48.962Z,100812.25
2023-10-16T07:03:22.251Z,100817.56
2023-10-16T07:05:55.012Z,100827.98
2023-10-16T07:08:27.380Z,100829.64
2023-10-16T07:11:04.988Z,100830.48
2023-10-16T07:13:40.187Z,100829.27
2023-10-16T07:16:12.711Z,100844.57
2023-10-16T07:18:45.900Z,100851.91
2023-10-16T07:21:19.568Z,100849.45
2023-10-16T07:23:54.724Z,100848.23
2023-10-16T07:26:28.107Z,100849.72
2023-10-16T07:29:00.084Z,100857.49
2023-10-16T07:31:31.528Z,100859.51
2023-10-16T07:34:05.624Z,100861.89
2023-10-16T07:36:38.222Z,100866.20
2023-10-16T07:39:10.219Z,100870.50
2023-10-16T07:41:44.875Z,100863.17
2023-10-16T07:44:16.612Z,100865.66
2023-10-16T07:46:49.820Z,100870.98
2023-10-16T07:49:26.713Z,100869.77
2023-10-16T07:52:01.570Z,100864.92
2023-10-16T07:54:38.157Z,100864.09
2023-10-16T07:57:12.748Z,100869.60
2023-10-16T07:59:49.066Z,100864.09
2023-10-16T08:02:21.431Z,100874.55
2023-10-16T08:04:54.603Z,100882.16
2023-10-16T08:07:47.030Z,100886.27
2023-10-16T08:10:43.986Z,100885.08
2023-10-16T08:13:17.790Z,100897.63
2023-10-16T08:15:51.096Z,100900.12
2023-10-16T08:18:27.329Z,100905.23
2023-10-16T08:21:09.055Z,100917.52
2023-10-16T08:23:47.298Z,100917.35
2023-10-16T08:26:29.693Z,100928.63
2023-10-16T08:29:13.164Z,100931.92
2023-10-16T08:31:45.946Z,100928.53
2023-10-16T08:34:21.314Z,100939.23
2023-10-16T08:36:53.801Z,100948.13
2023-10-16T08:39:26.500Z,100952.52
2023-10-16T08:42:03.801Z,100959.56
2023-10-16T08:44:36.288Z,100965.98
2023-10-16T08:47:17.552Z,100959.27
2023-10-16T08:49:59.263Z,100971.20
2023-10-16T08:52:36.212Z,100964.28
2023-10-16T08:55:17.119Z,100969.31
2023-10-16T08:57:50.742Z,100973.52
2023-10-16T09:00:24.605Z,100977.33
2023-10-16T09:02:58.590Z,100979.48
2023-10-16T09:05:31.607Z,100984.30
2023-10-16T09:08:06.444Z,100987.11
2023-10-16T09:10:43.090Z,100989.05
2023-10-16T09:13:20.169Z,100992.20
2023-10-16T09:15:59.313Z,100993.95
2023-10-16T09:18:32.896Z,100996.30
2023-10-16T09:21:14.544Z,100990.42
2023-10-16T09:23:53.237Z,100995.83
2023-10-16T09:26:30.445Z,100992.61
2023-10-16T09:29:06.954Z,100999.22
2023-10-16T09:31:39.045Z,101009.33
2023-10-16T09:34:11.909Z,101004.67
2023-10-16T09:36:48.220Z,101001.06
2023-10-16T09:39:31.665Z,101004.02
2023-10-16T09:42:08.210Z,101000.56
2023-10-16T09:44:40.689Z,101009.41
2023-10-16T09:47:30.644Z,101006.77
2023-10-16T09:50:18.445Z,101000.17
2023-10-16T09:52:50.317Z,100986.98
2023-10-16T09:55:25.544Z,100995.59
2023-10-16T09:57:59.540Z,100995.83
2023-10-16T10:00:34.226Z,100992.08
2023-10-16T10:03:09.398Z,100983.22
2023-10-16T10:05:49.575Z,100976.64
2023-10-16T10:08:29.141Z,100980.92
2023-10-16T10:11:29.122Z,100988.94
2023-10-16T10:14:21.700Z,100987.48
2023-10-16T10:16:58.389Z,100984.33
2023-10-16T10:19:37.305Z,100987.98
2023-10-16T10:22:18.761Z,100989.37
2023-10-16T10:24:53.670Z,100981.95
2023-10-16T10:27:25.956Z,100990.16
2023-10-16T10:30:03.018Z,100993.02
2023-10-16T10:32:35.060Z,101004.34
2023-10-16T10:35:28.109Z,101001.23
2023-10-16T10:38:18.770Z,101001.84
2023-10-16T10:41:07.635Z,100986.37
2023-10-16T10:43:47.899Z,100989.45
2023-10-16T10:46:28.204Z,100988.01
2023-10-16T10:49:04.904Z,100982.65
2023-10-16T10:51:38.293Z,100978.73
2023-10-16T10:54:11.353Z,100980.14
2023-10-16T10:56:49.111Z,100981.35
2023-10-16T10:59:33.951Z,100978.91
2023-10-16T11:02:22.905Z,100982.19
2023-10-16T11:05:00.328Z,100980.92
2023-10-16T11:07:41.104Z,100979.45
2023-10-16T11:10:15.398Z,100977.17
2023-10-16T11:12:47.795Z,100981.26
2023-10-16T11:15:20.944Z,100966.62
2023-10-16T11:17:53.920Z,100981.05
2023-10-16T11:20:32.525Z,100978.97
2023-10-16T11:23:14.097Z,100985.14
2023-10-16T11:25:47.217Z,100984.27
2023-10-16T11:28:21.538Z,100980.95
2023-10-16T11:30:55.952Z,100972.46
2023-10-16T11:33:29.306Z,100967.47
2023-10-16T11:36:04.704Z,100972.99
2023-10-16T11:38:36.973Z,100966.59
2023-10-16T11:41:13.745Z,100963.86
2023-10-16T11:43:52.906Z,100964.02
2023-10-16T11:46:32.672Z,100962.53
2023-10-16T11:49:19.785Z,100960.21
2023-10-16T11:51:52.784Z,100963.49
2023-10-16T11:54:25.733Z,100957.09
2023-10-16T11:57:01.033Z,100962.01
2023-10-16T11:59:33.754Z,100959.48
2023-10-16T12:02:12.694Z,100961.72
2023-10-16T12:04:45.674Z,100967.47
2023-10-16T12:07:18.108Z,100967.83
2023-10-16T12:09:53.221Z,100956.66
2023-10-16T12:12:26.446Z,100961.96
2023-10-16T12:14:58.993Z,100961.52
2023-10-16T12:17:30.642Z,100961.87
2023-10-16T12:20:10.291Z,100966.34
2023-10-16T12:22:41.396Z,100960.91
2023-10-16T12:25:14.096Z,100954.64
2023-10-16T12:27:45.985Z,100964.72
2023-10-16T12:30:18.481Z,100960.77
2023-10-16T12:32:50.875Z,100964.64
2023-10-16T12:35:24.318Z,100963.95
2023-10-16T12:37:58.115Z,100962.70
2023-10-16T12:40:35.513Z,100953.34
2023-10-16T12:43:08.836Z,100951.05
2023-10-16T12:45:42.436Z,100950.59
2023-10-16T12:48:15.652Z,100943.92
2023-10-16T12:51:03.773Z,100944.30
2023-10-16T12:53:41.426Z,100941.16
2023-10-16T12:56:14.203Z,100941.75
2023-10-16T12:58:46.577Z,100941.29
2023-10-16T13:01:23.351Z,100935.92
2023-10-16T13:04:01.632Z,100928.07
2023-10-16T13:06:35.531Z,100928.45
2023-10-16T13:09:15.928Z,100933.36
2023-10-16T13:11:48.581Z,100937.23
2023-10-16T13:14:20.456Z,100940.27
2023-10-16T13:16:55.918Z,100941.09
2023-10-16T13:19:29.094Z,100941.69
2023-10-16T13:22:09.362Z,100937.70
2023-10-16T13:24:43.792Z,100940.39
2023-10-16T13:27:17.973Z,100937.70
2023-10-16T13:29:53.174Z,100929.64
2023-10-16T13:32:27.409Z,100930.23
2023-10-16T13:35:01.580Z,100932.70
2023-10-16T13:37:35.204Z,100928.72
2023-10-16T13:40:17.283Z,100932.23
2023-10-16T13:42:49.146Z,100935.52
2023-10-16T13:45:23.323Z,100936.91
2023-10-16T13:47:56.116Z,100945.80
2023-10-16T13:50:29.715Z,100934.00
2023-10-16T13:53:01.056Z,100939.38
2023-10-16T13:55:32.860Z,100935.86
2023-10-16T13:58:07.087Z,100942.53
2023-10-16T14:00:39.854Z,100939.25
2023-10-16T14:03:18.643Z,100944.04
2023-10-16T14:05:52.176Z,100939.13
2023-10-16T14:08:32.484Z,100939.34
2023-10-16T14:11:05.261Z,100935.26
2023-10-16T14:13:38.992Z,100943.78
2023-10-16T14:16:13.189Z,100942.82
2023-10-16T14:18:45.765Z,100947.26
2023-10-16T14:21:18.240Z,100950.61
2023-10-16T14:23:49.982Z,100937.30
2023-10-16T14:26:25.965Z,100945.42
2023-10-16T14:29:01.184Z,100939.11
2023-10-16T14:31:35.190Z,100948.67
2023-10-16T14:34:08.522Z,100949.34
2023-10-16T14:36:42.100Z,100953.97
2023-10-16T14:39:14.901Z,100957.11
2023-10-16T14:41:51.173Z,100956.13
2023-10-16T14:44:33.174Z,100952.11
2023-10-16T14:47:10.987Z,100944.96
2023-10-16T14:49:43.391Z,100940.94
2023-10-16T14:52:15.747Z,100943.68
2023-10-16T14:54:48.137Z,100947.26
2023-10-16T14:57:25.742Z,100954.56
2023-10-16T14:59:58.624Z,100961.05
2023-10-16T15:02:30.802Z,100956.78
2023-10-16T15:05:03.248Z,100959.74
2023-10-16T15:07:34.655Z,100964.58
2023-10-16T15:10:07.946Z,100964.86
2023-10-16T15:12:41.235Z,100965.73
2023-10-16T15:15:14.361Z,100967.05
2023-10-16T15:17:46.911Z,100968.09
2023-10-16T15:20:20.051Z,100974.75
2023-10-16T15:22:51.794Z,100976.05
2023-10-16T15:25:23.910Z,100977.55
2023-10-16T15:27:56.371Z,100973.48
2023-10-16T15:30:29.330Z,100981.16
2023-10-16T15:33:01.757Z,100978.96
2023-10-16T15:35:34.273Z,100989.30
2023-10-16T15:38:07.649Z,100994.48
2023-10-16T15:40:44.494Z,101002.98
2023-10-16T15:43:18.620Z,101003.63
2023-10-16T15:45:50.783Z,101005.69
2023-10-16T15:48:23.072Z,101010.00
2023-10-16T15:50:55.685Z,101016.60
2023-10-16T15:53:27.201Z,101018.06
2023-10-16T15:55:59.167Z,101016.20
2023-10-16T15:58:31.539Z,101020.34
2023-10-16T16:01:07.067Z,101033.06
2023-10-16T16:03:41.082Z,101035.72
2023-10-16T16:06:18.764Z,101042.28
2023-10-16T16:08:50.844Z,101047.19
2023-10-16T16:11:28.668Z,101048.61
2023-10-16T16:14:00.841Z,101047.33
2023-10-16T16:16:33.982Z,101047.70
2023-10-16T16:19:07.266Z,101050.94
2023-10-16T16:21:40.729Z,101056.63
2023-10-16T16:24:14.029Z,101058.62
2023-10-16T16:26:46.463Z,101063.70
2023-10-16T16:29:18.240Z,101063.86
2023-10-16T16:31:50.423Z,101068.50
2023-10-16T16:34:23.655Z,101075.01
2023-10-16T16:36:55.737Z,101082.52
2023-10-16T16:39:30.362Z,101082.66
2023-10-16T16:42:02.589Z,101079.33
2023-10-16T16:44:34.693Z,101092.59
2023-10-16T16:47:07.678Z,101090.05
2023-10-16T16:49:40.659Z,101089.38
2023-10-16T16:52:13.033Z,101090.13
2023-10-16T16:54:45.703Z,101089.24
2023-10-16T16:57:17.825Z,101087.69
2023-10-16T16:59:49.977Z,101086.41
2023-10-16T17:02:22.562Z,101095.33
2023-10-16T17:04:55.580Z,101088.94
2023-10-16T17:07:31.417Z,101096.66
2023-10-16T17:10:03.798Z,101103.55
2023-10-16T17:12:37.759Z,101091.98
2023-10-16T17:15:13.335Z,101089.06
2023-10-16T17:17:46.081Z,101095.97
2023-10-16T17:20:18.534Z,101094.86
2023-10-16T17:25:28.601Z,101104.16
2023-10-16T17:28:00.612Z,101098.56
2023-10-16T17:30:33.454Z,101104.42
2023-10-16T17:33:08.384Z,101109.30
2023-10-16T17:35:40.391Z,101106.16
2023-10-16T17:38:11.994Z,101116.36
2023-10-16T17:40:46.221Z,101116.73
2023-10-16T17:43:20.161Z,101120.77
2023-10-16T17:45:52.322Z,101133.58
2023-10-16T17:48:26.824Z,101129.64
2023-10-16T17:50:59.740Z,101142.29
2023-10-16T17:53:31.853Z,101145.51
2023-10-16T17:56:04.019Z,101142.20
2023-10-16T17:58:38.227Z,101145.39
2023-10-16T18:01:15.517Z,101156.38
2023-10-16T18:03:48.213Z,101155.94
2023-10-16T18:06:22.007Z,101152.79
2023-10-16T18:08:54.907Z,101150.69
2023-10-16T18:11:27.277Z,101152.86
2023-10-16T18:13:59.424Z,101157.72
2023-10-16T18:16:32.827Z,101168.71
2023-10-16T18:19:05.333Z,101175.36
2023-10-16T18:21:41.731Z,101170.75
2023-10-16T18:24:16.624Z,101181.09
2023-10-16T18:26:50.295Z,101184.45
2023-10-16T18:29:22.033Z,101188.43
2023-10-16T18:31:55.051Z,101190.78
2023-10-16T18:34:28.425Z,101190.48
2023-10-16T18:37:01.438Z,101195.69
2023-10-16T18:39:34.744Z,101207.36
2023-10-16T18:42:08.865Z,101206.20
2023-10-16T18:44:43.733Z,101215.36
2023-10-16T18:47:18.923Z,101204.43
2023-10-16T18:49:51.270Z,101207.24
2023-10-16T18:52:23.666Z,101218.05
2023-10-16T18:54:56.329Z,101213.08
2023-10-16T18:57:30.001Z,101207.93
2023-10-16T19:00:02.416Z,101218.89
2023-10-16T19:02:34.762Z,101212.12
2023-10-16T19:05:09.666Z,101218.58
2023-10-16T19:07:40.946Z,101219.77
2023-10-16T19:10:16.362Z,101221.77
2023-10-16T19:12:48.097Z,101219.45
2023-10-16T19:15:20.875Z,101223.26
2023-10-16T19:17:54.332Z,101231.56
2023-10-16T19:20:27.102Z,101231.91
2023-10-16T19:22:58.472Z,101240.86
2023-10-16T19:25:30.992Z,101239.55
2023-10-16T19:28:05.097Z,101241.55
2023-10-16T19:30:37.785Z,101237.23
2023-10-16T19:33:11.703Z,101241.88
2023-10-16T19:35:44.781Z,101242.22
2023-10-16T19:38:16.529Z,101236.25
2023-10-16T19:40:49.519Z,101243.55
2023-10-16T19:43:21.400Z,101244.08
2023-10-16T19:45:56.056Z,101243.41
2023-10-16T19:48:28.174Z,101249.87
2023-10-16T19:51:00.478Z,101245.89
2023-10-16T19:53:32.139Z,101248.88
2023-10-16T19:56:03.678Z,101257.17
2023-10-16T19:58:35.903Z,101255.03
2023-10-16T20:01:07.772Z,101244.09
2023-10-16T20:03:40.354Z,101251.39
2023-10-16T20:06:12.761Z,101256.19
2023-10-16T20:08:44.786Z,101253.72
2023-10-16T20:11:17.383Z,101252.20
2023-10-16T20:13:49.181Z,101256.84
2023-10-16T20:16:21.729Z,101256.36
2023-10-16T20:18:54.876Z,101254.04
2023-10-16T20:21:26.868Z,101249.88
2023-10-16T20:24:05.131Z,101253.70
2023-10-16T20:26:38.128Z,101257.50
2023-10-16T20:29:10.301Z,101260.33
2023-10-16T20:31:57.792Z,101258.16
2023-10-16T20:34:32.858Z,101270.92
2023-10-16T20:37:05.640Z,101262.31
2023-10-16T20:39:37.856Z,101266.27
2023-10-16T20:42:10.452Z,101263.77
2023-10-16T20:44:42.877Z,101271.06
2023-10-16T20:47:14.727Z,101268.73
2023-10-16T20:49:47.083Z,101265.59
2023-10-16T20:52:20.480Z,101264.08
2023-10-16T20:54:53.053Z,101261.44
2023-10-16T20:57:25.191Z,101267.72
2023-10-16T20:59:56.811Z,101264.26
2023-10-16T21:02:28.534Z,101266.06
2023-10-16T21:05:00.184Z,101272.21
2023-10-16T21:07:32.653Z,101272.21
2023-10-16T21:10:06.707Z,101270.55
2023-10-16T21:12:38.422Z,101276.84
2023-10-16T21:15:13.487Z,101273.52
2023-10-16T21:17:45.954Z,101274.66
2023-10-16T21:20:19.023Z,101274.00
2023-10-16T21:22:51.150Z,101281.25
2023-10-16T21:25:25.941Z,101288.70
2023-10-16T21:27:58.176Z,101281.07
2023-10-16T21:30:30.660Z,101281.39
2023-10-16T21:33:03.217Z,101281.72
2023-10-16T21:35:35.287Z,101285.50
2023-10-16T21:38:07.045Z,101280.52
2023-10-16T21:40:39.414Z,101278.19
2023-10-16T21:43:11.787Z,101277.84
2023-10-16T21:45:44.083Z,101279.81
2023-10-16T21:48:16.514Z,101280.31
2023-10-16T21:50:48.571Z,101281.62
2023-10-16T21:53:20.252Z,101275.79
2023-10-16T21:55:52.968Z,101278.76
2023-10-16T21:58:24.636Z,101277.41
2023-10-16T22:01:00.920Z,101284.86
2023-10-16T22:03:32.759Z,101289.62
2023-10-16T22:06:05.493Z,101289.09
2023-10-16T22:08:37.787Z,101296.53
2023-10-16T22:11:14.007Z,101301.45
2023-10-16T22:13:45.974Z,101305.41
2023-10-16T22:16:18.158Z,101310.02
2023-10-16T22:18:52.440Z,101304.36
2023-10-16T22:21:24.524Z,101306.47
2023-10-16T22:23:56.075Z,101311.27
2023-10-16T22:26:28.503Z,101317.00
2023-10-16T22:29:00.486Z,101313.00
2023-10-16T22:31:32.307Z,101317.78
2023-10-16T22:34:05.165Z,101326.84
2023-10-16T22:36:36.967Z,101324.67
2023-10-16T22:39:11.467Z,101321.66
2023-10-16T22:41:43.495Z,101321.96
2023-10-16T22:44:15.852Z,101324.06
2023-10-16T22:46:51.333Z,101328.84
2023-10-16T22:49:23.886Z,101333.75
2023-10-16T22:51:56.239Z,101333.21
2023-10-16T22:54:28.834Z,101338.80
2023-10-16T22:57:01.411Z,101340.09
2023-10-16T22:59:33.355Z,101344.86
2023-10-16T23:02:06.115Z,101336.38
2023-10-16T23:04:42.280Z,101330.71
2023-10-16T23:07:15.185Z,101330.20
2023-10-16T23:09:48.247Z,101328.67
2023-10-16T23:12:25.979Z,101328.16
2023-10-16T23:15:02.836Z,101325.80
2023-10-16T23:17:40.286Z,101329.56
2023-10-16T23:20:18.155Z,101320.14
2023-10-16T23:22:49.793Z,101315.15
2023-10-16T23:25:22.962Z,101321.41
2023-10-16T23:27:57.607Z,101326.83
2023-10-16T23:30:34.856Z,101315.75
2023-10-16T23:33:11.966Z,101321.03
2023-10-16T23:35:44.267Z,101321.33
2023-10-16T23:38:15.614Z,101318.00
2023-10-16T23:40:58.710Z,101316.34
2023-10-16T23:43:32.847Z,101312.03
2023-10-16T23:46:07.496Z,101307.73
2023-10-16T23:48:46.092Z,101313.99
2023-10-16T23:51:23.422Z,101308.70
2023-10-16T23:53:55.461Z,101309.69
2023-10-16T23:56:39.592Z,101308.03
2023-10-16T23:59:14.523Z,101307.34
